Time;durP1;ratioP1;P1;durP2;ratioP2;P2;SDS_P1;SDS_P2;PMS_P1;PMS_P2;Temp;Humidity;BMP_temperature;BMP_pressure;BME280_temperature;BME280_humidity;BME280_pressure;Samples;Min_cycle;Max_cycle;Signal;HPM_P1;HPM_P2
2022/12/13 00:01:24;;;;;;;11.68;5.63;;;-5.60;99.90;;;;;;4934728;29;20059;-78
2022/12/13 00:03:53;;;;;;;10.55;5.32;;;-5.60;99.90;;;;;;4950495;28;20051;-78
2022/12/13 00:06:26;;;;;;;10.13;5.63;;;-5.60;99.90;;;;;;4951301;28;20062;-78
2022/12/13 00:08:58;;;;;;;12.30;6.15;;;-5.60;99.90;;;;;;4966082;28;20051;-77
2022/12/13 00:11:27;;;;;;;13.45;6.18;;;-5.60;99.90;;;;;;4950765;29;20051;-78
2022/12/13 00:13:55;;;;;;;14.23;6.00;;;-5.50;99.90;;;;;;4951086;28;20472;-78
2022/12/13 00:16:26;;;;;;;14.40;6.28;;;-5.60;99.90;;;;;;4950252;29;20051;-77
2022/12/13 00:18:55;;;;;;;15.23;6.55;;;-5.50;99.90;;;;;;4934363;29;20066;-77
2022/12/13 00:21:28;;;;;;;12.25;6.50;;;-5.50;99.90;;;;;;4950561;28;20059;-77
2022/12/13 00:23:57;;;;;;;13.68;6.80;;;-5.50;99.90;;;;;;4934353;29;20424;-77
2022/12/13 00:26:26;;;;;;;16.77;7.05;;;-5.50;99.90;;;;;;4951839;29;20051;-76
2022/12/13 00:28:54;;;;;;;14.52;7.15;;;-5.50;99.90;;;;;;4950311;29;20056;-77
2022/12/13 00:31:24;;;;;;;14.32;6.88;;;-5.50;99.90;;;;;;4921244;29;20420;-77
2022/12/13 00:33:53;;;;;;;14.32;7.15;;;-5.50;99.90;;;;;;4932624;29;20142;-77
2022/12/13 00:36:21;;;;;;;17.08;7.85;;;-5.50;99.90;;;;;;4915451;29;20047;-77
2022/12/13 00:38:59;;;;;;;16.13;7.28;;;-5.50;99.90;;;;;;4939809;29;20648;-77
2022/12/13 00:41:31;;;;;;;14.73;7.35;;;-5.50;99.90;;;;;;4951653;29;20091;-78
2022/12/13 00:43:59;;;;;;;20.35;7.70;;;-5.50;99.90;;;;;;4952039;29;20141;-78
2022/12/13 00:46:27;;;;;;;14.13;6.63;;;-5.50;99.90;;;;;;4934268;29;20055;-78
2022/12/13 00:48:57;;;;;;;18.38;7.90;;;-5.40;99.90;;;;;;4933055;29;20078;-78
2022/12/13 00:51:27;;;;;;;17.98;7.60;;;-5.40;99.90;;;;;;4951674;29;20059;-79
2022/12/13 00:53:56;;;;;;;18.23;7.00;;;-5.30;99.90;;;;;;4915770;29;20150;-79
2022/12/13 00:56:27;;;;;;;15.55;7.47;;;-5.30;99.90;;;;;;4936880;29;20523;-78
2022/12/13 00:58:56;;;;;;;14.63;7.90;;;-5.20;99.90;;;;;;4950119;29;20460;-78
2022/12/13 01:01:26;;;;;;;15.57;7.68;;;-5.20;99.90;;;;;;4951545;29;20062;-78
2022/12/13 01:03:55;;;;;;;14.88;7.65;;;-5.20;99.90;;;;;;4934247;29;20047;-77
2022/12/13 01:06:27;;;;;;;16.15;7.03;;;-5.20;99.90;;;;;;4950452;29;20043;-78
2022/12/13 01:08:56;;;;;;;14.40;6.63;;;-5.10;99.90;;;;;;4951531;29;20522;-78
2022/12/13 01:11:23;;;;;;;15.88;7.45;;;-5.10;99.90;;;;;;4951921;29;20047;-78
2022/12/13 01:13:50;;;;;;;14.63;7.75;;;-5.10;99.90;;;;;;4950728;29;20397;-77
2022/12/13 01:16:18;;;;;;;19.00;8.07;;;-5.10;99.90;;;;;;4913594;29;20148;-77
2022/12/13 01:18:46;;;;;;;14.55;7.75;;;-5.00;99.90;;;;;;4930336;29;20056;-79
2022/12/13 01:21:16;;;;;;;14.25;7.10;;;-5.00;99.90;;;;;;4920084;29;20112;-78
2022/12/13 01:23:44;;;;;;;13.50;6.40;;;-5.10;99.90;;;;;;4917831;29;20106;-78
2022/12/13 01:26:15;;;;;;;16.60;6.72;;;-5.00;99.90;;;;;;4955145;29;20059;-77
2022/12/13 01:28:43;;;;;;;16.33;8.27;;;-5.00;99.90;;;;;;4937387;29;20057;-78
2022/12/13 01:31:13;;;;;;;20.00;8.20;;;-5.00;99.90;;;;;;4925610;29;20079;-77
2022/12/13 01:33:42;;;;;;;11.90;6.97;;;-5.00;99.90;;;;;;4948940;29;20059;-78
2022/12/13 01:36:14;;;;;;;18.33;7.68;;;-5.00;99.90;;;;;;4954936;28;20074;-78
2022/12/13 01:38:42;;;;;;;14.45;7.18;;;-5.00;99.90;;;;;;4903387;29;20048;-78
2022/12/13 01:41:19;;;;;;;19.15;8.68;;;-4.90;99.90;;;;;;4934399;29;20083;-80
2022/12/13 01:43:58;;;;;;;19.17;7.95;;;-4.90;99.90;;;;;;4954469;29;20485;-78
2022/12/13 01:46:26;;;;;;;12.27;7.20;;;-4.90;99.90;;;;;;4954702;29;20071;-78
2022/12/13 01:49:01;;;;;;;12.93;7.53;;;-4.90;99.90;;;;;;4953357;29;20706;-79
2022/12/13 01:51:36;;;;;;;14.73;7.82;;;-4.90;99.90;;;;;;4935680;29;20051;-78
2022/12/13 01:54:06;;;;;;;13.85;7.35;;;-4.90;99.90;;;;;;4954358;29;20156;-77
2022/12/13 01:56:41;;;;;;;13.48;7.60;;;-4.90;99.90;;;;;;4954182;29;20583;-77
2022/12/13 01:59:11;;;;;;;16.20;7.72;;;-4.90;99.90;;;;;;4967329;28;20078;-81
2022/12/13 02:01:40;;;;;;;14.93;7.72;;;-4.80;99.90;;;;;;4936996;29;20054;-77
2022/12/13 02:04:08;;;;;;;14.93;7.88;;;-4.80;99.90;;;;;;4954160;28;20051;-77
2022/12/13 02:06:40;;;;;;;14.73;7.72;;;-4.80;99.90;;;;;;4936858;29;20591;-79
2022/12/13 02:09:09;;;;;;;11.60;7.57;;;-4.70;99.90;;;;;;4935155;29;20051;-79
2022/12/13 02:11:42;;;;;;;16.42;7.63;;;-4.70;99.90;;;;;;4953852;28;20393;-78
2022/12/13 02:14:10;;;;;;;14.95;6.60;;;-4.70;99.90;;;;;;4936801;29;20048;-78
2022/12/13 02:16:51;;;;;;;14.82;8.15;;;-4.70;99.90;;;;;;4943573;29;20055;-79
2022/12/13 02:20:18;;;;;;;17.52;6.82;;;-4.70;99.90;;;;;;4935112;29;20059;-78
2022/12/13 02:23:09;;;;;;;14.77;6.70;;;-4.80;99.90;;;;;;4933297;29;20138;-79
2022/12/13 02:26:20;;;;;;;10.82;6.32;;;-4.80;99.90;;;;;;4934995;29;20101;-77
2022/12/13 02:29:15;;;;;;;17.75;7.70;;;-4.90;99.90;;;;;;4930523;29;20047;-78
2022/12/13 02:31:51;;;;;;;13.23;7.20;;;-4.90;99.90;;;;;;4934502;29;20055;-78
2022/12/13 02:34:24;;;;;;;15.18;7.88;;;-4.80;99.90;;;;;;4933573;29;20062;-78
2022/12/13 02:37:06;;;;;;;15.25;8.15;;;-4.80;99.90;;;;;;4936769;29;20555;-78
2022/12/13 02:39:39;;;;;;;18.00;8.57;;;-4.80;99.90;;;;;;4954102;29;20111;-76
2022/12/13 02:42:15;;;;;;;16.13;8.18;;;-4.70;99.90;;;;;;4953600;29;20485;-77
2022/12/13 02:44:50;;;;;;;13.52;7.20;;;-4.70;99.90;;;;;;4936379;29;20054;-78
2022/12/13 02:47:23;;;;;;;15.98;7.70;;;-4.70;99.90;;;;;;4953743;29;20523;-77
2022/12/13 02:49:52;;;;;;;;;;;-4.70;99.90;;;;;;4953871;29;20051;-77
2022/12/13 02:52:25;;;;;;;15.95;6.75;;;-4.70;99.90;;;;;;4953076;29;20453;-77
2022/12/13 02:54:54;;;;;;;;;;;-4.70;99.90;;;;;;4953651;29;20051;-77
2022/12/13 02:57:33;;;;;;;15.13;7.20;;;-4.60;99.90;;;;;;4953226;29;19930;-77
2022/12/13 03:00:06;;;;;;;11.20;6.35;;;-4.60;99.90;;;;;;4953453;29;20055;-78
2022/12/13 03:02:45;;;;;;;16.55;7.90;;;-4.60;99.90;;;;;;4953454;29;20066;-78
2022/12/13 03:08:23;;;;;;;14.38;7.40;;;-4.50;99.90;;;;;;4953594;29;20055;-78
2022/12/13 03:11:04;;;;;;;13.98;7.30;;;-4.50;99.90;;;;;;4935688;29;20583;-79
2022/12/13 03:13:40;;;;;;;16.40;7.15;;;-4.40;99.90;;;;;;4952860;29;20055;-77
2022/12/13 03:16:21;;;;;;;16.67;7.20;;;-4.30;99.90;;;;;;4952978;29;20546;-77
2022/12/13 03:18:52;;;;;;;14.13;7.55;;;-4.30;99.90;;;;;;4952759;29;20050;-76
2022/12/13 03:21:23;;;;;;;15.35;7.38;;;-4.30;99.90;;;;;;4935538;29;20575;-77
2022/12/13 03:23:51;;;;;;;15.57;7.80;;;-4.30;99.90;;;;;;4935255;28;20058;-77
2022/12/13 03:26:23;;;;;;;19.75;9.00;;;-4.20;99.90;;;;;;4951633;28;20039;-72
2022/12/13 03:28:51;;;;;;;19.77;8.00;;;-4.20;99.90;;;;;;4952733;29;20492;-72
2022/12/13 03:31:19;;;;;;;22.33;8.38;;;-4.10;99.90;;;;;;4939669;29;20489;-73
2022/12/13 03:33:48;;;;;;;16.02;7.55;;;-4.10;99.90;;;;;;4933145;29;20525;-73
2022/12/13 03:36:17;;;;;;;18.02;8.30;;;-4.10;99.90;;;;;;4933459;29;20048;-73
2022/12/13 03:38:46;;;;;;;21.48;8.90;;;-4.10;99.90;;;;;;4951137;29;20090;-73
2022/12/13 03:41:17;;;;;;;16.48;8.35;;;-4.00;99.90;;;;;;4934814;29;20500;-72
2022/12/13 03:43:45;;;;;;;20.42;8.25;;;-3.90;99.90;;;;;;4952229;29;20059;-72
2022/12/13 03:46:13;;;;;;;15.57;8.40;;;-3.90;99.90;;;;;;4934964;29;20134;-73
2022/12/13 03:48:40;;;;;;;15.43;9.18;;;-3.80;99.90;;;;;;4934810;29;20428;-72
2022/12/13 03:51:09;;;;;;;16.75;8.55;;;-3.80;99.90;;;;;;4952271;29;20051;-72
2022/12/13 03:53:36;;;;;;;13.63;8.13;;;-3.80;99.90;;;;;;4952472;28;20401;-72
2022/12/13 03:56:06;;;;;;;21.38;10.23;;;-3.80;99.90;;;;;;4952274;28;20051;-73
2022/12/13 03:58:35;;;;;;;22.02;9.20;;;-3.80;99.90;;;;;;4934637;29;20496;-73
2022/12/13 04:01:05;;;;;;;17.15;8.40;;;-3.80;99.90;;;;;;4951863;29;20054;-72
2022/12/13 04:03:32;;;;;;;18.90;9.45;;;-3.80;99.90;;;;;;4919085;29;20488;-72
2022/12/13 04:06:00;;;;;;;20.05;8.88;;;-3.80;99.90;;;;;;4932468;29;20055;-71
2022/12/13 04:08:28;;;;;;;17.02;8.00;;;-3.80;99.90;;;;;;4931240;29;20377;-71
2022/12/13 04:10:56;;;;;;;17.67;8.93;;;-3.70;99.90;;;;;;4926843;29;20127;-70
2022/12/13 04:13:32;;;;;;;15.02;8.65;;;-3.70;99.90;;;;;;4932007;29;20075;-72
2022/12/13 04:16:03;;;;;;;20.40;8.98;;;-3.60;99.90;;;;;;4932734;29;20051;-76
2022/12/13 04:18:31;;;;;;;20.90;9.68;;;-3.60;99.90;;;;;;4932571;29;20833;-76
2022/12/13 04:20:58;;;;;;;17.98;9.68;;;-3.60;99.90;;;;;;4907695;29;20146;-76
2022/12/13 04:23:26;;;;;;;18.27;8.20;;;-3.60;99.90;;;;;;4914668;29;20051;-75
2022/12/13 04:25:55;;;;;;;22.98;8.77;;;-3.60;99.90;;;;;;4932976;29;20048;-76
2022/12/13 04:28:22;;;;;;;18.83;9.30;;;-3.60;99.90;;;;;;4941819;29;20044;-75
2022/12/13 04:30:50;;;;;;;18.27;8.70;;;-3.60;99.90;;;;;;4929448;29;20044;-75
2022/12/13 04:33:19;;;;;;;15.15;8.55;;;-3.60;99.90;;;;;;4930317;29;20079;-76
2022/12/13 04:35:47;;;;;;;19.48;9.57;;;-3.60;99.90;;;;;;4927726;29;20587;-75
2022/12/13 04:38:16;;;;;;;19.30;8.77;;;-3.60;99.90;;;;;;4932428;29;20052;-77
2022/12/13 04:40:45;;;;;;;17.45;9.18;;;-3.60;99.90;;;;;;4924378;29;20059;-77
2022/12/13 04:43:14;;;;;;;18.63;9.55;;;-3.50;99.90;;;;;;4916552;29;20167;-71
2022/12/13 04:45:42;;;;;;;21.27;9.82;;;-3.50;99.90;;;;;;4920141;29;20686;-72
2022/12/13 04:48:09;;;;;;;19.52;9.32;;;-3.50;99.90;;;;;;4929700;29;20174;-76
2022/12/13 04:50:37;;;;;;;16.85;8.25;;;-3.40;99.90;;;;;;4916231;29;20052;-76
2022/12/13 04:53:05;;;;;;;19.92;9.60;;;-3.40;99.90;;;;;;4916311;29;20546;-76
2022/12/13 04:55:33;;;;;;;16.83;8.63;;;-3.40;99.90;;;;;;4938835;29;20123;-76
2022/12/13 04:58:00;;;;;;;18.20;8.35;;;-3.40;99.90;;;;;;4922506;29;20500;-76
2022/12/13 05:00:32;;;;;;;18.40;8.88;;;-3.40;99.90;;;;;;4936763;29;20131;-80
2022/12/13 05:03:00;;;;;;;15.98;7.97;;;-3.30;99.90;;;;;;4936997;29;20063;-77
2022/12/13 05:05:27;;;;;;;18.25;8.32;;;-3.30;99.90;;;;;;4935017;29;20055;-80
2022/12/13 05:07:55;;;;;;;17.58;8.70;;;-3.20;99.90;;;;;;4937003;29;20056;-76
2022/12/13 05:10:23;;;;;;;14.18;7.68;;;-3.20;99.90;;;;;;4931281;29;20069;-75
2022/12/13 05:12:50;;;;;;;17.80;8.00;;;-3.20;99.90;;;;;;4935066;29;20055;-76
2022/12/13 05:15:18;;;;;;;14.25;8.20;;;-3.20;99.90;;;;;;4929408;29;20048;-76
2022/12/13 05:17:47;;;;;;;17.75;8.68;;;-3.10;99.90;;;;;;4915713;29;20154;-75
2022/12/13 05:20:14;;;;;;;17.65;8.55;;;-3.10;99.90;;;;;;4925904;29;20629;-76
2022/12/13 05:22:43;;;;;;;12.27;7.97;;;-3.00;99.90;;;;;;4935781;29;20517;-76
2022/12/13 05:25:10;;;;;;;12.13;6.75;;;-3.00;99.90;;;;;;4930749;29;20424;-76
2022/12/13 05:27:38;;;;;;;14.00;7.70;;;-2.90;99.90;;;;;;4918882;29;20497;-76
2022/12/13 05:30:06;;;;;;;12.05;7.50;;;-2.80;99.90;;;;;;4900161;29;20087;-77
2022/12/13 05:32:37;;;;;;;12.68;7.70;;;-2.80;99.90;;;;;;4923298;29;20542;-75
2022/12/13 05:35:07;;;;;;;15.75;7.35;;;-2.70;99.90;;;;;;4900431;29;20104;-75
2022/12/13 05:37:35;;;;;;;11.05;6.72;;;-2.80;99.90;;;;;;4922461;29;20051;-77
2022/12/13 05:40:04;;;;;;;11.93;7.05;;;-2.80;99.90;;;;;;4934059;29;20457;-72
2022/12/13 05:42:31;;;;;;;12.60;7.28;;;-2.90;99.90;;;;;;4914368;29;20528;-72
2022/12/13 05:44:59;;;;;;;11.93;7.25;;;-3.00;99.90;;;;;;4926025;29;20134;-73
2022/12/13 05:47:26;;;;;;;12.55;7.07;;;-3.00;99.90;;;;;;4934143;29;20056;-74
2022/12/13 05:49:54;;;;;;;11.90;7.53;;;-3.10;99.90;;;;;;4936604;29;20475;-74
2022/12/13 05:52:23;;;;;;;12.85;7.20;;;-3.00;99.90;;;;;;4934454;29;20055;-75
2022/12/13 05:54:55;;;;;;;12.82;7.13;;;-2.90;99.90;;;;;;4902758;29;20059;-75
2022/12/13 05:57:23;;;;;;;11.27;7.20;;;-2.80;99.90;;;;;;4934439;29;20047;-75
2022/12/13 05:59:50;;;;;;;12.82;7.47;;;-2.70;99.90;;;;;;4935399;29;20036;-76
2022/12/13 06:02:18;;;;;;;10.50;6.65;;;-2.70;99.90;;;;;;4935645;29;20083;-75
2022/12/13 06:04:46;;;;;;;12.50;6.75;;;-2.60;99.90;;;;;;4933872;29;20047;-76
2022/12/13 06:07:14;;;;;;;11.45;6.80;;;-2.60;99.90;;;;;;4934364;29;20056;-76
2022/12/13 06:09:43;;;;;;;13.73;6.20;;;-2.50;99.90;;;;;;4935497;29;20050;-77
2022/12/13 06:12:11;;;;;;;10.88;6.25;;;-2.50;99.90;;;;;;4933871;29;20055;-76
2022/12/13 06:14:38;;;;;;;10.25;6.03;;;-2.50;99.90;;;;;;4935059;29;20471;-77
2022/12/13 06:17:09;;;;;;;8.35;5.70;;;-2.50;99.90;;;;;;4946854;29;20153;-75
2022/12/13 06:19:45;;;;;;;10.75;6.35;;;-2.40;99.90;;;;;;4936566;29;20584;-78
2022/12/13 06:22:35;;;;;;;11.38;6.97;;;-2.40;99.90;;;;;;4937797;29;20048;-77
2022/12/13 06:25:06;;;;;;;10.25;5.90;;;-2.40;99.90;;;;;;4935213;29;20155;-80
2022/12/13 06:27:35;;;;;;;11.50;6.70;;;-2.40;99.90;;;;;;4910955;29;20060;-75
2022/12/13 06:30:06;;;;;;;10.07;6.75;;;-2.40;99.90;;;;;;4917105;29;20054;-74
2022/12/13 06:32:38;;;;;;;11.02;6.18;;;-2.40;99.90;;;;;;4921636;29;20050;-75
2022/12/13 06:35:13;;;;;;;;;;;-2.40;99.90;;;;;;4926527;29;20088;-79
2022/12/13 06:37:55;;;;;;;9.93;6.13;;;-2.40;99.90;;;;;;4907511;29;19934;-80
2022/12/13 06:40:45;;;;;;;12.07;6.55;;;-2.40;99.90;;;;;;4925292;29;20102;-74
2022/12/13 06:43:45;;;;;;;10.45;6.65;;;-2.40;99.90;;;;;;4941833;29;20115;-82
2022/12/13 06:46:18;;;;;;;10.07;6.60;;;-2.40;99.90;;;;;;4921204;29;20052;-76
2022/12/13 06:48:48;;;;;;;10.95;6.93;;;-2.40;99.90;;;;;;4937613;29;20055;-76
2022/12/13 06:51:23;;;;;;;12.50;7.72;;;-2.40;99.90;;;;;;4936008;29;20480;-73
2022/12/13 06:54:01;;;;;;;9.50;6.65;;;-2.40;99.90;;;;;;4935758;29;20428;-75
2022/12/13 06:56:33;;;;;;;9.48;6.07;;;-2.40;99.90;;;;;;4949829;29;20142;-70
2022/12/13 06:59:18;;;;;;;10.55;6.93;;;-2.40;99.90;;;;;;4918423;29;20061;-72
2022/12/13 07:01:51;;;;;;;12.38;5.63;;;-2.50;99.90;;;;;;4949874;29;20067;-74
2022/12/13 07:04:37;;;;;;;11.35;7.00;;;-2.60;99.90;;;;;;4936695;29;20063;-80
2022/12/13 07:07:09;;;;;;;11.57;6.97;;;-2.60;99.90;;;;;;4934351;29;20546;-74
2022/12/13 07:10:28;;;;;;;10.57;6.43;;;-2.70;99.90;;;;;;4941360;29;20059;-74
2022/12/13 07:13:07;;;;;;;7.45;5.13;;;-2.70;99.90;;;;;;4954054;29;20104;-77
2022/12/13 07:15:35;;;;;;;7.10;5.30;;;-2.60;99.90;;;;;;4953585;28;20134;-75
2022/12/13 07:18:11;;;;;;;10.35;5.85;;;-2.60;99.90;;;;;;4954209;29;20055;-75
2022/12/13 07:20:43;;;;;;;8.65;5.85;;;-2.50;99.90;;;;;;4936578;29;20059;-75
2022/12/13 07:23:12;;;;;;;9.40;6.00;;;-2.40;99.90;;;;;;4953962;29;20055;-70
2022/12/13 07:25:41;;;;;;;10.45;5.97;;;-2.40;99.90;;;;;;4953487;29;20516;-69
2022/12/13 07:28:11;;;;;;;11.05;6.03;;;-2.40;99.90;;;;;;4936329;29;20047;-70
2022/12/13 07:30:40;;;;;;;9.50;6.05;;;-2.40;99.90;;;;;;4953494;29;20047;-70
2022/12/13 07:33:07;;;;;;;8.80;5.75;;;-2.40;99.90;;;;;;4953742;29;20098;-71
2022/12/13 07:35:35;;;;;;;8.95;5.55;;;-2.40;99.90;;;;;;4936381;29;20047;-71
2022/12/13 07:38:03;;;;;;;9.10;5.57;;;-2.30;99.90;;;;;;4953491;29;20043;-72
2022/12/13 07:40:35;;;;;;;9.32;6.07;;;-2.30;99.90;;;;;;4953514;29;20138;-70
2022/12/13 07:43:05;;;;;;;7.78;5.18;;;-2.30;99.90;;;;;;4936235;29;20055;-70
2022/12/13 07:45:36;;;;;;;8.30;5.50;;;-2.30;99.90;;;;;;4936350;29;20110;-70
2022/12/13 07:48:07;;;;;;;9.93;5.82;;;-2.30;99.90;;;;;;4920548;29;20047;-69
2022/12/13 07:50:38;;;;;;;9.50;6.10;;;-2.30;99.90;;;;;;4953741;29;20602;-71
2022/12/13 07:53:09;;;;;;;9.73;5.28;;;-2.30;99.90;;;;;;4953266;29;20484;-70
2022/12/13 07:55:38;;;;;;;11.70;5.90;;;-2.30;99.90;;;;;;4953324;29;20419;-70
2022/12/13 07:58:11;;;;;;;10.52;5.90;;;-2.30;99.90;;;;;;4953052;29;20047;-69
2022/12/13 08:00:42;;;;;;;8.77;6.22;;;-2.30;99.90;;;;;;4952912;29;20460;-70
2022/12/13 08:03:13;;;;;;;7.65;5.45;;;-2.30;99.90;;;;;;4936195;29;20102;-70
2022/12/13 08:05:43;;;;;;;7.57;5.35;;;-2.20;99.90;;;;;;4953461;29;20055;-69
2022/12/13 08:08:16;;;;;;;9.50;6.32;;;-2.30;99.90;;;;;;4950405;29;20055;-70
2022/12/13 08:10:53;;;;;;;11.07;6.28;;;-2.20;99.90;;;;;;4916087;29;20079;-71
2022/12/13 08:13:22;;;;;;;9.98;5.97;;;-2.10;99.90;;;;;;4948141;29;20063;-70
2022/12/13 08:16:01;;;;;;;10.45;7.07;;;-2.10;99.90;;;;;;4934090;29;20275;-71
2022/12/13 08:18:42;;;;;;;11.95;6.68;;;-2.10;99.90;;;;;;4916854;29;20055;-69
2022/12/13 08:21:18;;;;;;;9.75;6.32;;;-2.10;99.90;;;;;;4948498;29;20063;-71
2022/12/13 08:23:48;;;;;;;10.35;7.25;;;-2.10;99.90;;;;;;4933908;29;20243;-69
2022/12/13 08:26:19;;;;;;;11.50;6.90;;;-2.20;99.90;;;;;;4916709;29;20520;-72
2022/12/13 08:28:47;;;;;;;15.80;8.35;;;-2.10;99.90;;;;;;4936551;29;20476;-71
2022/12/13 08:31:18;;;;;;;16.27;7.35;;;-2.10;99.90;;;;;;4938894;29;20047;-72
2022/12/13 08:33:48;;;;;;;12.77;7.50;;;-2.10;99.90;;;;;;4920765;29;20051;-71
2022/12/13 08:36:44;;;;;;;11.65;7.57;;;-2.10;99.90;;;;;;4936481;29;20084;-73
2022/12/13 08:39:17;;;;;;;13.32;8.15;;;-2.00;99.90;;;;;;4937007;29;20523;-72
2022/12/13 08:41:50;;;;;;;;;;;-2.00;99.90;;;;;;4938542;29;20143;-72
2022/12/13 08:44:21;;;;;;;14.50;8.20;;;-1.90;99.90;;;;;;4936530;29;19934;-72
2022/12/13 08:47:00;;;;;;;12.85;8.30;;;-2.00;99.90;;;;;;4937669;29;20051;-72
2022/12/13 08:49:31;;;;;;;14.77;8.00;;;-2.00;99.90;;;;;;4920532;29;20461;-71
2022/12/13 08:52:05;;;;;;;15.48;9.23;;;-1.90;99.90;;;;;;4936217;29;20110;-74
2022/12/13 08:54:34;;;;;;;12.15;8.13;;;-1.90;99.90;;;;;;4920125;29;20432;-73
2022/12/13 08:57:02;;;;;;;14.77;8.70;;;-1.90;99.90;;;;;;4935753;29;20048;-74
2022/12/13 08:59:30;;;;;;;13.00;7.63;;;-1.90;99.90;;;;;;4936923;29;20058;-73
2022/12/13 09:01:59;;;;;;;13.73;7.82;;;-1.90;99.90;;;;;;4937068;29;20139;-73
2022/12/13 09:04:27;;;;;;;11.80;7.40;;;-1.90;99.90;;;;;;4920146;29;20130;-74
2022/12/13 09:06:54;;;;;;;13.48;7.90;;;-1.80;99.90;;;;;;4936964;29;20497;-74
2022/12/13 09:09:22;;;;;;;13.02;7.35;;;-1.80;99.90;;;;;;4919758;29;20062;-73
2022/12/13 09:11:49;;;;;;;14.65;7.57;;;-1.70;99.90;;;;;;4935265;29;20070;-73
2022/12/13 09:14:16;;;;;;;12.63;7.20;;;-1.80;99.90;;;;;;4936410;29;20513;-72
2022/12/13 09:16:44;;;;;;;11.88;7.47;;;-1.70;99.90;;;;;;4935299;29;20575;-72
2022/12/13 09:19:12;;;;;;;11.50;6.82;;;-1.70;99.90;;;;;;4919622;29;20417;-72
2022/12/13 09:21:39;;;;;;;11.18;7.50;;;-1.70;99.90;;;;;;4936689;29;20050;-72
2022/12/13 09:24:07;;;;;;;13.05;7.55;;;-1.70;99.90;;;;;;4936280;29;20091;-75
2022/12/13 09:26:34;;;;;;;11.30;7.40;;;-1.60;99.90;;;;;;4935368;29;20051;-73
2022/12/13 09:29:03;;;;;;;11.35;6.90;;;-1.60;99.90;;;;;;4919489;29;20051;-72
2022/12/13 09:31:33;;;;;;;12.25;7.05;;;-1.70;99.90;;;;;;4934890;29;20059;-71
2022/12/13 09:34:01;;;;;;;13.15;6.20;;;-1.70;99.90;;;;;;4935203;29;20054;-73
2022/12/13 09:36:30;;;;;;;14.55;6.97;;;-1.60;99.90;;;;;;4934848;29;20154;-74
2022/12/13 09:38:58;;;;;;;8.88;6.55;;;-1.70;99.90;;;;;;4918839;29;20079;-72
2022/12/13 09:41:36;;;;;;;14.98;7.57;;;-1.70;99.90;;;;;;4935128;29;20591;-71
2022/12/13 09:44:13;;;;;;;13.18;7.00;;;-1.70;99.90;;;;;;4940427;29;20108;-72
2022/12/13 09:46:45;;;;;;;12.15;7.68;;;-1.70;99.90;;;;;;4916715;29;20142;-74
2022/12/13 09:49:17;;;;;;;12.43;7.00;;;-1.60;99.90;;;;;;4928094;29;20103;-74
2022/12/13 09:51:53;;;;;;;13.25;7.55;;;-1.50;99.90;;;;;;4936092;29;20048;-73
2022/12/13 09:54:25;;;;;;;11.68;6.28;;;-1.50;99.90;;;;;;4950850;29;20051;-74
2022/12/13 09:56:56;;;;;;;12.60;7.35;;;-1.60;99.90;;;;;;4934884;29;20367;-73
2022/12/13 09:59:28;;;;;;;10.10;6.70;;;-1.70;99.90;;;;;;4936100;29;20079;-72
2022/12/13 10:01:57;;;;;;;12.27;6.90;;;-1.70;99.90;;;;;;4946228;29;20485;-72
2022/12/13 10:04:25;;;;;;;10.57;6.80;;;-1.60;99.90;;;;;;4935668;29;20153;-74
2022/12/13 10:06:54;;;;;;;11.50;7.18;;;-1.50;99.90;;;;;;4934702;29;20143;-73
2022/12/13 10:09:22;;;;;;;10.45;6.57;;;-1.50;99.90;;;;;;4932783;29;20079;-75
2022/12/13 10:12:07;;;;;;;14.55;7.15;;;-1.50;99.90;;;;;;4932258;29;20102;-73
2022/12/13 10:14:44;;;;;;;10.25;7.05;;;-1.40;99.90;;;;;;4949558;29;20054;-76
2022/12/13 10:17:17;;;;;;;10.40;6.68;;;-1.40;99.90;;;;;;4940796;29;20416;-75
2022/12/13 10:19:50;;;;;;;9.90;6.80;;;-1.40;99.90;;;;;;4946365;29;20558;-74
2022/12/13 10:22:21;;;;;;;10.70;6.75;;;-1.50;99.90;;;;;;4951128;29;20061;-74
2022/12/13 10:24:52;;;;;;;9.48;5.88;;;-1.50;99.90;;;;;;4947761;29;20114;-76
2022/12/13 10:27:30;;;;;;;9.90;6.47;;;-1.60;99.90;;;;;;4942992;29;20158;-75
2022/12/13 10:30:06;;;;;;;8.52;5.90;;;-1.60;99.90;;;;;;4939424;29;20052;-74
2022/12/13 10:32:44;;;;;;;10.10;6.80;;;-1.50;99.90;;;;;;4914869;29;20416;-74
2022/12/13 10:35:24;;;;;;;12.15;6.90;;;-1.40;99.90;;;;;;4927971;29;20118;-74
2022/12/13 10:37:57;;;;;;;15.05;7.07;;;-1.30;99.90;;;;;;4932747;29;20146;-75
2022/12/13 10:40:31;;;;;;;9.82;6.03;;;-1.30;99.90;;;;;;4948914;29;20066;-76
2022/12/13 10:43:12;;;;;;;10.13;6.18;;;-1.40;99.90;;;;;;4922343;29;20082;-75
2022/12/13 10:45:41;;;;;;;12.27;6.80;;;-1.40;99.90;;;;;;4939583;29;20150;-75
2022/12/13 10:48:20;;;;;;;11.82;6.63;;;-1.30;99.90;;;;;;4931184;29;20071;-74
2022/12/13 10:50:59;;;;;;;13.40;6.70;;;-1.20;99.90;;;;;;4929321;29;20266;-75
2022/12/13 10:53:32;;;;;;;8.80;6.20;;;-1.20;99.90;;;;;;4931678;29;20233;-74
2022/12/13 10:56:00;;;;;;;;;;;-1.20;99.90;;;;;;4929922;29;20771;-74
2022/12/13 10:58:37;;;;;;;16.35;7.22;;;-1.30;99.90;;;;;;4928619;29;20400;-73
2022/12/13 11:01:22;;;;;;;12.18;7.45;;;-1.30;99.90;;;;;;4931163;29;20044;-74
2022/12/13 11:03:59;;;;;;;10.32;6.80;;;-1.30;99.90;;;;;;4930339;29;20094;-76
2022/12/13 11:06:28;;;;;;;11.93;7.28;;;-1.30;99.90;;;;;;4912735;29;20066;-76
2022/12/13 11:08:57;;;;;;;13.05;6.38;;;-1.30;99.90;;;;;;4940179;29;20039;-76
2022/12/13 11:11:30;;;;;;;13.18;7.38;;;-1.30;99.90;;;;;;4926497;29;20513;-76
2022/12/13 11:14:02;;;;;;;11.45;6.15;;;-1.20;99.90;;;;;;4927753;29;20044;-76
2022/12/13 11:16:37;;;;;;;15.63;7.78;;;-1.20;99.90;;;;;;4928287;29;20051;-76
2022/12/13 11:19:07;;;;;;;8.48;5.95;;;-1.20;99.90;;;;;;4929725;29;20047;-74
2022/12/13 11:21:47;;;;;;;12.57;7.00;;;-1.20;99.90;;;;;;4927158;29;20047;-74
2022/12/13 11:24:22;;;;;;;9.95;6.45;;;-1.20;99.90;;;;;;4938668;29;20056;-73
2022/12/13 11:26:57;;;;;;;13.95;6.95;;;-1.20;99.90;;;;;;4931847;29;20052;-75
2022/12/13 11:29:59;;;;;;;10.02;6.40;;;-1.10;99.90;;;;;;4915213;29;20055;-75
2022/12/13 11:36:16;;;;;;;13.20;6.57;;;-1.10;99.90;;;;;;4927780;29;20043;-77
2022/12/13 11:39:03;;;;;;;12.57;7.28;;;-1.10;99.90;;;;;;4932722;29;20107;-77
2022/12/13 11:41:38;;;;;;;11.13;7.32;;;-1.10;99.90;;;;;;4932519;29;20086;-77
2022/12/13 11:44:15;;;;;;;13.55;7.97;;;-1.20;99.90;;;;;;4933906;29;20326;-79
2022/12/13 11:46:46;;;;;;;9.88;6.78;;;-1.20;99.90;;;;;;4929121;29;20138;-81
2022/12/13 11:49:29;;;;;;;;;;;;;;;;;;;;;
2022/12/13 11:52:06;;;;;;;10.70;6.55;;;-1.20;99.90;;;;;;4929321;29;20062;-77
2022/12/13 11:54:49;;;;;;;12.45;7.43;;;-1.20;99.90;;;;;;4912292;29;20044;-77
2022/12/13 11:57:38;;;;;;;13.13;7.47;;;-1.10;99.90;;;;;;4931950;29;20149;-75
2022/12/13 12:00:32;;;;;;;10.93;6.35;;;-1.10;99.90;;;;;;4932051;29;20069;-77
2022/12/13 12:03:18;;;;;;;12.27;6.38;;;-1.10;99.90;;;;;;4932264;29;20051;-76
2022/12/13 12:05:51;;;;;;;11.02;6.75;;;-1.10;99.90;;;;;;4931694;29;20048;-75
2022/12/13 12:08:29;;;;;;;14.98;7.20;;;-1.10;99.90;;;;;;4913985;29;20427;-79
2022/12/13 12:11:08;;;;;;;10.05;6.43;;;-1.10;99.90;;;;;;4932069;29;20560;-80
2022/12/13 12:13:41;;;;;;;10.68;6.22;;;-1.10;99.90;;;;;;4931334;29;20052;-79
2022/12/13 12:16:20;;;;;;;12.88;7.45;;;-1.10;99.90;;;;;;4931548;29;20138;-80
2022/12/13 12:18:50;;;;;;;11.23;6.70;;;-1.10;99.90;;;;;;4923998;29;20052;-77
2022/12/13 12:21:33;;;;;;;11.93;6.63;;;-1.10;99.90;;;;;;4932266;29;20524;-80
2022/12/13 12:24:15;;;;;;;11.57;7.28;;;-1.10;99.90;;;;;;4932738;29;20402;-79
2022/12/13 12:26:55;;;;;;;11.02;6.57;;;-1.10;99.90;;;;;;4933824;29;20405;-76
2022/12/13 12:29:55;;;;;;;11.88;6.68;;;-1.00;99.90;;;;;;4930219;29;20055;-76
2022/12/13 12:32:33;;;;;;;13.32;6.63;;;-1.00;99.90;;;;;;4943710;29;20078;-77
2022/12/13 12:35:20;;;;;;;11.27;6.15;;;-1.00;99.90;;;;;;4930526;29;20055;-79
2022/12/13 12:37:54;;;;;;;13.00;6.75;;;-1.00;99.90;;;;;;4934744;29;20048;-80
2022/12/13 12:41:02;;;;;;;11.38;6.70;;;-1.00;99.90;;;;;;4933277;29;20058;-76
2022/12/13 12:43:33;;;;;;;10.55;6.75;;;-1.00;99.90;;;;;;4941617;29;20603;-77
2022/12/13 12:46:30;;;;;;;13.50;6.90;;;-1.00;99.90;;;;;;4927359;29;20138;-77
2022/12/13 12:49:53;;;;;;;10.43;6.07;;;-1.00;99.90;;;;;;4927684;29;20386;-75
2022/12/13 12:52:31;;;;;;;13.07;6.25;;;-0.90;99.90;;;;;;4903524;29;20050;-80
2022/12/13 12:55:10;;;;;;;7.13;5.50;;;-0.90;99.90;;;;;;4920475;29;20656;-80
2022/12/13 12:57:53;;;;;;;8.02;5.45;;;-1.00;99.90;;;;;;4922568;29;20138;-74
2022/12/13 13:00:24;;;;;;;10.18;5.80;;;-1.00;99.90;;;;;;4915807;29;20445;-80
2022/12/13 13:03:02;;;;;;;10.00;5.68;;;-1.00;99.90;;;;;;4904792;29;20067;-74
2022/12/13 13:05:36;;;;;;;10.52;6.05;;;-1.00;99.90;;;;;;4926927;29;20115;-75
2022/12/13 13:08:13;;;;;;;9.15;5.57;;;-1.00;99.90;;;;;;4908456;29;20051;-74
2022/12/13 13:10:48;;;;;;;9.38;5.90;;;-1.10;99.90;;;;;;4925302;29;20095;-82
2022/12/13 13:13:34;;;;;;;11.18;6.18;;;-1.10;99.90;;;;;;4938964;28;20048;-76
2022/12/13 13:16:37;;;;;;;12.65;5.80;;;-1.10;99.90;;;;;;4926276;29;20115;-80
2022/12/13 13:19:44;;;;;;;9.18;5.78;;;-1.10;99.90;;;;;;4928330;29;20067;-75